Time;durP1;ratioP1;P1;durP2;ratioP2;P2;SDS_P1;SDS_P2;PMS_P1;PMS_P2;Temp;Humidity;BMP_temperature;BMP_pressure;BME280_temperature;BME280_humidity;BME280_pressure;Samples;Min_cycle;Max_cycle;Signal;HPM_P1;HPM_P2
2021/01/02 00:00:03;;;;;;;44.60;20.55;;;;;;;;;;5092257;28;20028;-61
2021/01/02 00:02:39;;;;;;;44.30;20.42;;;;;;;;;;5090055;28;20032;-61
2021/01/02 00:05:11;;;;;;;42.92;19.08;;;;;;;;;;5092146;28;20448;-60
2021/01/02 00:07:46;;;;;;;36.67;17.77;;;;;;;;;;5092884;28;20024;-61
2021/01/02 00:10:14;;;;;;;41.90;20.05;;;;;;;;;;5090072;28;20112;-62
2021/01/02 00:12:45;;;;;;;45.28;20.10;;;;;;;;;;5074217;28;20028;-61
2021/01/02 00:15:15;;;;;;;43.55;20.08;;;;;;;;;;5089167;28;20467;-62
2021/01/02 00:17:40;;;;;;;43.92;19.30;;;;;;;;;;5057459;28;20050;-62
2021/01/02 00:20:15;;;;;;;45.57;19.23;;;;;;;;;;5091594;28;20411;-60
2021/01/02 00:22:40;;;;;;;46.78;18.80;;;;;;;;;;5092283;28;20028;-62
2021/01/02 00:25:16;;;;;;;53.73;19.47;;;;;;;;;;5091389;28;20384;-61
2021/01/02 00:27:47;;;;;;;43.85;18.70;;;;;;;;;;5073285;28;20064;-61
2021/01/02 00:30:31;;;;;;;49.80;18.90;;;;;;;;;;5090124;28;20039;-61
2021/01/02 00:33:03;;;;;;;43.83;20.08;;;;;;;;;;5089892;28;20039;-61
2021/01/02 00:35:29;;;;;;;43.50;18.70;;;;;;;;;;5089637;28;20249;-61
2021/01/02 00:37:57;;;;;;;42.70;19.20;;;;;;;;;;5074208;28;20068;-61
2021/01/02 00:40:23;;;;;;;46.38;19.30;;;;;;;;;;5094557;28;20083;-62
2021/01/02 00:42:49;;;;;;;44.40;21.00;;;;;;;;;;5093993;28;20047;-61
2021/01/02 00:45:19;;;;;;;48.30;20.63;;;;;;;;;;5075609;28;20036;-61
2021/01/02 00:47:44;;;;;;;42.75;19.17;;;;;;;;;;5092625;28;20115;-60
2021/01/02 00:50:12;;;;;;;42.88;20.83;;;;;;;;;;5073816;28;20044;-60
2021/01/02 00:52:37;;;;;;;42.63;18.83;;;;;;;;;;5092553;28;20043;-61
2021/01/02 00:55:09;;;;;;;43.60;19.50;;;;;;;;;;5057040;28;20036;-61
2021/01/02 00:57:51;;;;;;;42.90;20.15;;;;;;;;;;5057390;28;20073;-62
2021/01/02 01:00:17;;;;;;;43.42;20.63;;;;;;;;;;5092420;28;20028;-61
2021/01/02 01:02:47;;;;;;;38.50;18.73;;;;;;;;;;5073892;28;20032;-61
2021/01/02 01:05:20;;;;;;;40.20;19.77;;;;;;;;;;5091237;28;20036;-61
2021/01/02 01:07:50;;;;;;;43.53;19.92;;;;;;;;;;5073543;28;20064;-61
2021/01/02 01:10:19;;;;;;;39.47;20.40;;;;;;;;;;5091141;28;20129;-61
2021/01/02 01:12:46;;;;;;;48.30;20.40;;;;;;;;;;5074063;28;20027;-60
2021/01/02 01:15:12;;;;;;;36.42;17.52;;;;;;;;;;5091125;28;20033;-62
2021/01/02 01:17:56;;;;;;;41.63;19.02;;;;;;;;;;5073722;28;20035;-61
2021/01/02 01:20:21;;;;;;;40.42;18.75;;;;;;;;;;5073541;28;20036;-61
2021/01/02 01:23:01;;;;;;;40.10;19.33;;;;;;;;;;5056895;28;20055;-61
2021/01/02 01:25:37;;;;;;;41.97;19.65;;;;;;;;;;5091836;28;20024;-61
2021/01/02 01:28:04;;;;;;;43.15;18.80;;;;;;;;;;5091007;28;20042;-62
2021/01/02 01:30:34;;;;;;;47.22;20.30;;;;;;;;;;5091267;28;20097;-61
2021/01/02 01:33:00;;;;;;;42.40;19.23;;;;;;;;;;5072936;28;20403;-60
2021/01/02 01:35:26;;;;;;;41.05;19.58;;;;;;;;;;5073451;28;20386;-61
2021/01/02 01:37:52;;;;;;;56.33;20.77;;;;;;;;;;5091533;28;20032;-62
2021/01/02 01:40:22;;;;;;;47.05;19.45;;;;;;;;;;5071720;28;20096;-62
2021/01/02 01:43:00;;;;;;;39.42;19.98;;;;;;;;;;5091571;28;20032;-60
2021/01/02 01:45:28;;;;;;;38.10;19.85;;;;;;;;;;5073552;28;20392;-60
2021/01/02 01:48:04;;;;;;;38.70;18.92;;;;;;;;;;5091239;28;20017;-61
2021/01/02 01:50:48;;;;;;;40.72;19.48;;;;;;;;;;5091190;28;20069;-60
2021/01/02 01:53:32;;;;;;;39.28;19.10;;;;;;;;;;5090757;28;20032;-61
2021/01/02 01:55:59;;;;;;;41.13;19.00;;;;;;;;;;5072598;28;20052;-60
2021/01/02 01:58:36;;;;;;;38.08;19.83;;;;;;;;;;5091668;28;20481;-61
2021/01/02 02:01:02;;;;;;;38.63;18.45;;;;;;;;;;5090395;28;20056;-61
2021/01/02 02:03:33;;;;;;;41.50;19.58;;;;;;;;;;5090999;28;20122;-61
2021/01/02 02:06:02;;;;;;;44.47;19.70;;;;;;;;;;5090710;28;20024;-60
2021/01/02 02:08:41;;;;;;;42.00;20.10;;;;;;;;;;5090937;28;20365;-60
2021/01/02 02:11:13;;;;;;;40.90;20.63;;;;;;;;;;5090169;28;20050;-61
2021/01/02 02:13:43;;;;;;;38.53;21.15;;;;;;;;;;5073273;28;20184;-60
2021/01/02 02:16:10;;;;;;;42.13;20.02;;;;;;;;;;5090631;28;20063;-60
2021/01/02 02:18:35;;;;;;;;;;;;;;;;;;5091604;28;20039;-61
2021/01/02 02:21:00;;;;;;;38.27;20.00;;;;;;;;;;5090587;28;19908;-61
2021/01/02 02:23:40;;;;;;;41.63;21.27;;;;;;;;;;5091152;28;20031;-62
2021/01/02 02:26:07;;;;;;;38.15;19.30;;;;;;;;;;5090593;28;20035;-62
2021/01/02 02:28:32;;;;;;;45.65;21.13;;;;;;;;;;5090825;28;20496;-61
2021/01/02 02:31:01;;;;;;;42.03;18.63;;;;;;;;;;5072714;28;20036;-61
2021/01/02 02:33:30;;;;;;;40.10;20.50;;;;;;;;;;5090745;28;20024;-61
2021/01/02 02:35:55;;;;;;;44.05;20.05;;;;;;;;;;5086561;28;20511;-60
2021/01/02 02:38:21;;;;;;;40.20;19.40;;;;;;;;;;5081028;28;20024;-61
2021/01/02 02:40:46;;;;;;;33.72;17.10;;;;;;;;;;5070891;28;20105;-60
2021/01/02 02:43:12;;;;;;;41.43;20.73;;;;;;;;;;5070215;28;20089;-60
2021/01/02 02:45:37;;;;;;;44.42;21.38;;;;;;;;;;5070803;28;20025;-59
2021/01/02 02:48:04;;;;;;;40.80;20.30;;;;;;;;;;5070460;28;20037;-59
2021/01/02 02:50:31;;;;;;;43.00;19.05;;;;;;;;;;5087123;28;20040;-60
2021/01/02 02:52:56;;;;;;;;;;;;;;;;;;5090328;28;20101;-60
2021/01/02 02:55:21;;;;;;;44.93;19.67;;;;;;;;;;5073495;28;20097;-60
2021/01/02 02:57:48;;;;;;;40.90;19.70;;;;;;;;;;5074232;28;20448;-61
2021/01/02 03:00:15;;;;;;;40.17;20.83;;;;;;;;;;5073157;28;20043;-61
2021/01/02 03:02:40;;;;;;;42.55;21.48;;;;;;;;;;5074004;28;20025;-61
2021/01/02 03:05:10;;;;;;;40.30;20.73;;;;;;;;;;5073560;28;20031;-61
2021/01/02 03:07:40;;;;;;;44.10;20.73;;;;;;;;;;5073705;28;20475;-61
2021/01/02 03:10:06;;;;;;;45.78;21.65;;;;;;;;;;5073231;28;20036;-60
2021/01/02 03:12:38;;;;;;;42.53;20.70;;;;;;;;;;5073872;28;20101;-61
2021/01/02 03:15:03;;;;;;;45.83;22.33;;;;;;;;;;5073333;28;20112;-57
2021/01/02 03:17:29;;;;;;;44.00;19.57;;;;;;;;;;5073744;28;20465;-61
2021/01/02 03:19:54;;;;;;;42.13;20.37;;;;;;;;;;5073718;28;20029;-61
2021/01/02 03:22:19;;;;;;;39.97;19.67;;;;;;;;;;5073295;28;20028;-61
2021/01/02 03:24:45;;;;;;;41.13;20.40;;;;;;;;;;5073637;28;20037;-61
2021/01/02 03:27:13;;;;;;;43.97;18.90;;;;;;;;;;5073294;28;20135;-61
2021/01/02 03:29:38;;;;;;;40.88;20.63;;;;;;;;;;5073921;28;20333;-61
2021/01/02 03:32:03;;;;;;;42.53;19.23;;;;;;;;;;5073704;28;20040;-61
2021/01/02 03:34:29;;;;;;;42.60;19.90;;;;;;;;;;5073372;28;20036;-61
2021/01/02 03:36:54;;;;;;;43.07;19.60;;;;;;;;;;5074059;28;20471;-60
2021/01/02 03:39:19;;;;;;;42.00;19.70;;;;;;;;;;5054978;28;20566;-61
2021/01/02 03:41:45;;;;;;;36.03;19.13;;;;;;;;;;5073305;28;20099;-61
2021/01/02 03:44:10;;;;;;;46.53;22.37;;;;;;;;;;5072400;28;20052;-61
2021/01/02 03:46:35;;;;;;;39.93;20.80;;;;;;;;;;5055336;28;20060;-61
2021/01/02 03:49:01;;;;;;;47.33;21.70;;;;;;;;;;5073161;28;20043;-61
2021/01/02 03:51:26;;;;;;;42.47;20.03;;;;;;;;;;5072577;28;20048;-61
2021/01/02 03:53:52;;;;;;;44.07;21.50;;;;;;;;;;5073371;28;20145;-61
2021/01/02 03:56:17;;;;;;;44.70;21.10;;;;;;;;;;5072581;28;20029;-59
2021/01/02 03:58:42;;;;;;;44.27;20.70;;;;;;;;;;5073382;28;20147;-60
2021/01/02 04:01:08;;;;;;;41.57;21.03;;;;;;;;;;5072321;28;20500;-58
2021/01/02 04:03:33;;;;;;;39.87;20.50;;;;;;;;;;5071948;28;20162;-61
2021/01/02 04:05:58;;;;;;;44.07;22.53;;;;;;;;;;5073103;28;20032;-61
2021/01/02 04:08:24;;;;;;;44.87;22.47;;;;;;;;;;5072487;28;20024;-60
2021/01/02 04:10:49;;;;;;;50.70;22.27;;;;;;;;;;5072859;28;20048;-61
2021/01/02 04:13:14;;;;;;;52.83;22.47;;;;;;;;;;5072057;28;20028;-61
2021/01/02 04:15:40;;;;;;;46.33;23.73;;;;;;;;;;5072899;28;20054;-61
2021/01/02 04:18:05;;;;;;;45.03;21.83;;;;;;;;;;5073114;28;20028;-61
2021/01/02 04:20:30;;;;;;;47.03;22.90;;;;;;;;;;5054170;28;20028;-61
2021/01/02 04:22:56;;;;;;;44.47;22.83;;;;;;;;;;5072405;28;20059;-61
2021/01/02 04:25:21;;;;;;;43.33;22.23;;;;;;;;;;5072028;28;20024;-62
2021/01/02 04:27:46;;;;;;;45.47;21.83;;;;;;;;;;5072574;28;20373;-61
2021/01/02 04:30:12;;;;;;;45.40;22.53;;;;;;;;;;5071828;28;20218;-61
2021/01/02 04:32:37;;;;;;;47.72;24.38;;;;;;;;;;5072138;28;20028;-62
2021/01/02 04:35:03;;;;;;;47.77;23.13;;;;;;;;;;5072421;28;20028;-62
2021/01/02 04:37:29;;;;;;;47.17;22.97;;;;;;;;;;5053695;28;20119;-61
2021/01/02 04:39:54;;;;;;;48.50;24.48;;;;;;;;;;5072373;28;20032;-61
2021/01/02 04:42:23;;;;;;;46.53;23.05;;;;;;;;;;5071561;28;20036;-61
2021/01/02 04:44:52;;;;;;;46.58;24.08;;;;;;;;;;5072535;28;20105;-62
2021/01/02 04:47:21;;;;;;;47.03;22.70;;;;;;;;;;5071230;28;20024;-61
2021/01/02 04:49:47;;;;;;;48.88;24.05;;;;;;;;;;5071683;28;20044;-62
2021/01/02 04:52:17;;;;;;;44.33;21.97;;;;;;;;;;5053531;28;20453;-59
2021/01/02 04:54:47;;;;;;;51.15;24.15;;;;;;;;;;5053796;28;20063;-61
2021/01/02 04:57:13;;;;;;;45.15;21.95;;;;;;;;;;5087154;28;20074;-59
2021/01/02 04:59:39;;;;;;;48.97;22.87;;;;;;;;;;5072220;28;20044;-61
2021/01/02 05:02:04;;;;;;;;;;;;;;;;;;5072349;28;20028;-62
2021/01/02 05:04:30;;;;;;;43.87;21.70;;;;;;;;;;5053493;28;19908;-63
2021/01/02 05:06:55;;;;;;;50.70;24.00;;;;;;;;;;5054092;28;20070;-61
2021/01/02 05:09:20;;;;;;;46.47;22.47;;;;;;;;;;5086886;28;20041;-61
2021/01/02 05:11:46;;;;;;;54.17;25.50;;;;;;;;;;5053275;28;20048;-61
2021/01/02 05:14:11;;;;;;;47.80;22.87;;;;;;;;;;5071219;28;20111;-61
2021/01/02 05:16:38;;;;;;;52.17;27.17;;;;;;;;;;5086432;28;20115;-61
2021/01/02 05:19:03;;;;;;;57.80;28.98;;;;;;;;;;5071864;28;20406;-60
2021/01/02 05:21:29;;;;;;;47.50;24.43;;;;;;;;;;5070962;28;20154;-61
2021/01/02 05:24:05;;;;;;;50.55;25.02;;;;;;;;;;5071141;28;20506;-62
2021/01/02 05:26:31;;;;;;;50.42;23.55;;;;;;;;;;5070914;28;20103;-61
2021/01/02 05:29:15;;;;;;;51.30;24.80;;;;;;;;;;5053488;28;20550;-61
2021/01/02 05:31:42;;;;;;;50.58;23.25;;;;;;;;;;5071439;28;20025;-61
2021/01/02 05:34:08;;;;;;;43.00;23.40;;;;;;;;;;5071386;28;20017;-61
2021/01/02 05:36:33;;;;;;;48.17;23.90;;;;;;;;;;5070860;28;20322;-61
2021/01/02 05:38:59;;;;;;;53.40;25.23;;;;;;;;;;5053016;28;20044;-60
2021/01/02 05:41:24;;;;;;;50.22;23.25;;;;;;;;;;5070699;28;20029;-62
2021/01/02 05:43:50;;;;;;;48.13;25.33;;;;;;;;;;5071077;28;20050;-61
2021/01/02 05:46:16;;;;;;;46.77;23.90;;;;;;;;;;5053072;28;20032;-62
2021/01/02 05:48:41;;;;;;;54.17;23.77;;;;;;;;;;5086592;28;20036;-61
2021/01/02 05:51:11;;;;;;;51.37;23.30;;;;;;;;;;5071035;28;20029;-61
2021/01/02 05:53:36;;;;;;;55.10;24.00;;;;;;;;;;5070489;28;20066;-62
2021/01/02 05:56:01;;;;;;;47.80;23.87;;;;;;;;;;5070926;28;20396;-62
2021/01/02 05:58:30;;;;;;;45.13;22.97;;;;;;;;;;5070623;28;20415;-61
2021/01/02 06:01:06;;;;;;;52.25;24.60;;;;;;;;;;5071030;28;20111;-60
2021/01/02 06:03:32;;;;;;;46.17;23.30;;;;;;;;;;5086087;28;20471;-60
2021/01/02 06:05:58;;;;;;;56.47;26.55;;;;;;;;;;5071088;28;20021;-62
2021/01/02 06:08:27;;;;;;;54.88;25.63;;;;;;;;;;5070388;28;20031;-60
2021/01/02 06:10:53;;;;;;;61.03;27.40;;;;;;;;;;5070758;28;20041;-62
2021/01/02 06:13:19;;;;;;;51.65;23.80;;;;;;;;;;5070447;28;20043;-55
2021/01/02 06:15:44;;;;;;;54.90;25.92;;;;;;;;;;5071041;28;20025;-60
2021/01/02 06:18:10;;;;;;;54.90;25.97;;;;;;;;;;5070976;28;20029;-61
2021/01/02 06:20:35;;;;;;;63.60;27.53;;;;;;;;;;5070177;28;20053;-61
2021/01/02 06:23:00;;;;;;;55.53;25.47;;;;;;;;;;5070979;28;20028;-61
2021/01/02 06:25:26;;;;;;;51.70;25.00;;;;;;;;;;5086717;28;20159;-61
2021/01/02 06:27:51;;;;;;;59.07;27.20;;;;;;;;;;5074954;28;20181;-60
2021/01/02 06:30:17;;;;;;;60.23;27.20;;;;;;;;;;5074829;28;20041;-60
2021/01/02 06:32:43;;;;;;;56.08;26.85;;;;;;;;;;5074435;28;20025;-60
2021/01/02 06:35:09;;;;;;;60.33;26.83;;;;;;;;;;5074608;28;20051;-61
2021/01/02 06:37:57;;;;;;;60.70;26.53;;;;;;;;;;5089624;28;20422;-61
2021/01/02 06:40:24;;;;;;;58.55;25.20;;;;;;;;;;5065550;28;20057;-59
2021/01/02 06:43:15;;;;;;;57.60;28.92;;;;;;;;;;5074635;28;20037;-61
2021/01/02 06:45:44;;;;;;;57.15;26.00;;;;;;;;;;5070928;28;20115;-62
2021/01/02 06:48:15;;;;;;;60.10;27.25;;;;;;;;;;5056510;28;20033;-61
2021/01/02 06:50:41;;;;;;;56.88;27.08;;;;;;;;;;5073341;28;20043;-61
2021/01/02 06:53:22;;;;;;;61.23;28.27;;;;;;;;;;5073990;28;20024;-62
2021/01/02 06:56:00;;;;;;;64.95;28.15;;;;;;;;;;5074315;28;20025;-62
2021/01/02 06:58:35;;;;;;;60.95;28.67;;;;;;;;;;5073585;28;20438;-61
2021/01/02 07:01:04;;;;;;;54.63;26.85;;;;;;;;;;5056287;28;20037;-61
2021/01/02 07:03:39;;;;;;;61.22;27.90;;;;;;;;;;5072951;28;20028;-61
2021/01/02 07:06:20;;;;;;;55.13;27.38;;;;;;;;;;5073948;28;20032;-60
2021/01/02 07:08:49;;;;;;;61.40;27.75;;;;;;;;;;5073328;28;20126;-62
2021/01/02 07:11:33;;;;;;;61.47;28.35;;;;;;;;;;5084863;28;20543;-62
2021/01/02 07:14:08;;;;;;;64.57;26.58;;;;;;;;;;5054043;28;20040;-59
2021/01/02 07:16:42;;;;;;;62.53;28.10;;;;;;;;;;5053352;28;20139;-60
2021/01/02 07:19:08;;;;;;;70.40;29.98;;;;;;;;;;5053966;28;20033;-60
2021/01/02 07:21:37;;;;;;;65.60;30.85;;;;;;;;;;5053268;28;20518;-61
2021/01/02 07:24:21;;;;;;;66.65;30.90;;;;;;;;;;5053640;28;20032;-61
2021/01/02 07:26:47;;;;;;;70.80;31.55;;;;;;;;;;5053059;28;20029;-61
2021/01/02 07:29:19;;;;;;;67.10;34.17;;;;;;;;;;5053002;28;20029;-61
2021/01/02 07:31:44;;;;;;;67.15;31.63;;;;;;;;;;5052592;28;20033;-61
2021/01/02 07:34:20;;;;;;;71.45;30.05;;;;;;;;;;5053384;28;20083;-61
2021/01/02 07:36:45;;;;;;;67.10;31.15;;;;;;;;;;5084898;28;20032;-61
2021/01/02 07:39:12;;;;;;;70.85;30.17;;;;;;;;;;5053364;28;20115;-61
2021/01/02 07:41:38;;;;;;;73.78;29.88;;;;;;;;;;5051512;28;20154;-61
2021/01/02 07:44:04;;;;;;;69.22;29.98;;;;;;;;;;5053201;28;20116;-61
2021/01/02 07:46:31;;;;;;;59.20;27.55;;;;;;;;;;5052432;28;20477;-61
2021/01/02 07:48:56;;;;;;;69.68;30.60;;;;;;;;;;5053037;28;20441;-61
2021/01/02 07:51:21;;;;;;;69.00;29.30;;;;;;;;;;5058333;28;20056;-61
2021/01/02 07:53:53;;;;;;;69.43;29.27;;;;;;;;;;5072132;28;20651;-62
2021/01/02 07:56:32;;;;;;;68.43;29.75;;;;;;;;;;5070673;28;20060;-61
2021/01/02 07:58:57;;;;;;;61.33;27.88;;;;;;;;;;5070761;28;20079;-61
2021/01/02 08:01:23;;;;;;;66.33;29.97;;;;;;;;;;5072612;28;20512;-61
2021/01/02 08:03:48;;;;;;;69.83;30.90;;;;;;;;;;5071613;28;20601;-62
2021/01/02 08:06:17;;;;;;;86.13;34.40;;;;;;;;;;5071005;28;20032;-62
2021/01/02 08:08:56;;;;;;;72.63;30.95;;;;;;;;;;5071350;28;20036;-62
2021/01/02 08:11:21;;;;;;;78.22;32.70;;;;;;;;;;5083588;28;20119;-61
2021/01/02 08:13:47;;;;;;;79.87;31.47;;;;;;;;;;5073903;28;20181;-60
2021/01/02 08:16:12;;;;;;;75.47;31.97;;;;;;;;;;5092449;28;20067;-61
2021/01/02 08:18:37;;;;;;;85.57;34.33;;;;;;;;;;5073858;28;20020;-61
2021/01/02 08:21:03;;;;;;;71.47;29.57;;;;;;;;;;5092864;28;20040;-60
2021/01/02 08:23:28;;;;;;;80.20;32.63;;;;;;;;;;5092589;28;20024;-62
2021/01/02 08:25:53;;;;;;;76.87;33.63;;;;;;;;;;5073523;28;20122;-62
2021/01/02 08:28:19;;;;;;;83.77;33.13;;;;;;;;;;5074090;28;20064;-60
2021/01/02 08:30:44;;;;;;;75.60;31.60;;;;;;;;;;5073418;28;20173;-62
2021/01/02 08:33:11;;;;;;;81.47;28.63;;;;;;;;;;5092243;28;20157;-62
2021/01/02 08:35:41;;;;;;;77.97;32.75;;;;;;;;;;5091262;28;20103;-62
2021/01/02 08:38:08;;;;;;;86.38;33.53;;;;;;;;;;5092150;28;20024;-61
2021/01/02 08:40:37;;;;;;;77.68;30.85;;;;;;;;;;5091482;28;20027;-59
2021/01/02 08:43:03;;;;;;;80.18;32.08;;;;;;;;;;5092267;28;20028;-62
2021/01/02 08:45:30;;;;;;;73.90;30.08;;;;;;;;;;5092012;28;20055;-61
2021/01/02 08:47:55;;;;;;;;;;;;;;;;;;5073095;28;20148;-60
2021/01/02 08:50:20;;;;;;;73.43;30.43;;;;;;;;;;5091600;28;19916;-61
2021/01/02 08:52:46;;;;;;;75.03;28.80;;;;;;;;;;5073400;28;20081;-61
2021/01/02 08:55:15;;;;;;;78.90;31.13;;;;;;;;;;5091883;28;20028;-61
2021/01/02 08:57:50;;;;;;;71.40;29.95;;;;;;;;;;5090603;28;20062;-62
2021/01/02 09:00:21;;;;;;;69.07;28.35;;;;;;;;;;5090830;28;20111;-62
2021/01/02 09:02:57;;;;;;;72.88;29.73;;;;;;;;;;5088262;28;20034;-61
2021/01/02 09:05:25;;;;;;;74.15;30.10;;;;;;;;;;5089086;28;20115;-60
2021/01/02 09:07:54;;;;;;;67.70;30.30;;;;;;;;;;5090061;28;20024;-61
2021/01/02 09:10:21;;;;;;;79.45;29.75;;;;;;;;;;5087306;28;20105;-62
2021/01/02 09:12:59;;;;;;;71.93;30.05;;;;;;;;;;5089547;28;20029;-61
2021/01/02 09:15:48;;;;;;;72.97;29.25;;;;;;;;;;5088117;28;20024;-60
2021/01/02 09:18:14;;;;;;;73.15;29.10;;;;;;;;;;5077641;28;20460;-60
2021/01/02 09:20:40;;;;;;;67.97;27.10;;;;;;;;;;5090400;28;20024;-61
2021/01/02 09:23:08;;;;;;;72.90;28.10;;;;;;;;;;5073078;28;20020;-60
2021/01/02 09:25:34;;;;;;;68.10;29.55;;;;;;;;;;5091063;28;20114;-61
2021/01/02 09:28:15;;;;;;;74.88;29.67;;;;;;;;;;5090181;28;20031;-61
2021/01/02 09:30:41;;;;;;;81.40;32.47;;;;;;;;;;5072182;28;20043;-62
2021/01/02 09:33:07;;;;;;;70.00;29.15;;;;;;;;;;5090684;28;20092;-61
2021/01/02 09:35:32;;;;;;;70.83;29.30;;;;;;;;;;5072144;28;20096;-61
2021/01/02 09:37:57;;;;;;;74.60;30.70;;;;;;;;;;5089824;28;20587;-60
2021/01/02 09:40:23;;;;;;;78.83;31.80;;;;;;;;;;5072565;28;20059;-61
2021/01/02 09:42:48;;;;;;;72.55;29.33;;;;;;;;;;5090194;28;20047;-61
2021/01/02 09:45:14;;;;;;;73.77;31.00;;;;;;;;;;5090259;28;20368;-61
2021/01/02 09:47:40;;;;;;;83.07;31.85;;;;;;;;;;5071508;28;20024;-60
2021/01/02 09:50:06;;;;;;;87.13;31.13;;;;;;;;;;5090619;28;20082;-61
2021/01/02 09:52:31;;;;;;;75.30;32.33;;;;;;;;;;5090660;28;20028;-61
2021/01/02 09:54:56;;;;;;;87.07;32.13;;;;;;;;;;5071607;28;20234;-61
2021/01/02 09:57:22;;;;;;;76.53;28.60;;;;;;;;;;5090400;28;20051;-61
2021/01/02 09:59:47;;;;;;;81.80;32.07;;;;;;;;;;5090453;28;20486;-62
2021/01/02 10:02:13;;;;;;;81.27;31.40;;;;;;;;;;5094999;28;20028;-62
2021/01/02 10:04:42;;;;;;;68.13;29.07;;;;;;;;;;5076864;28;20303;-59
2021/01/02 10:07:07;;;;;;;72.22;28.60;;;;;;;;;;5076415;28;20020;-61
2021/01/02 10:09:33;;;;;;;75.93;32.03;;;;;;;;;;5094146;28;20031;-61
2021/01/02 10:11:58;;;;;;;78.53;32.50;;;;;;;;;;5093635;28;20378;-61
2021/01/02 10:14:26;;;;;;;78.27;29.53;;;;;;;;;;5094569;28;20396;-60
2021/01/02 10:16:54;;;;;;;77.13;30.50;;;;;;;;;;5093885;28;20065;-60
2021/01/02 10:19:19;;;;;;;79.65;30.33;;;;;;;;;;5076586;28;20063;-61
2021/01/02 10:21:47;;;;;;;85.17;32.17;;;;;;;;;;5057124;28;20052;-61
2021/01/02 10:24:12;;;;;;;77.60;31.00;;;;;;;;;;5095052;28;20028;-61
2021/01/02 10:26:37;;;;;;;76.53;32.50;;;;;;;;;;5075957;28;20114;-60
2021/01/02 10:29:04;;;;;;;84.80;33.40;;;;;;;;;;5093339;28;20434;-60
2021/01/02 10:31:30;;;;;;;88.60;34.05;;;;;;;;;;5094256;28;20153;-60
2021/01/02 10:33:55;;;;;;;79.13;30.57;;;;;;;;;;5093555;28;20043;-60
2021/01/02 10:36:20;;;;;;;72.10;30.20;;;;;;;;;;5094477;28;20031;-61
2021/01/02 10:38:46;;;;;;;83.13;32.87;;;;;;;;;;5093002;28;20061;-60
2021/01/02 10:41:14;;;;;;;83.37;32.47;;;;;;;;;;5093713;28;20101;-60
2021/01/02 10:43:40;;;;;;;81.85;32.63;;;;;;;;;;5075725;28;20042;-61
2021/01/02 10:46:09;;;;;;;84.17;32.73;;;;;;;;;;5092936;28;20413;-61
2021/01/02 10:48:35;;;;;;;82.35;33.80;;;;;;;;;;5093521;28;20077;-60
2021/01/02 10:51:00;;;;;;;82.97;33.07;;;;;;;;;;5092512;28;20024;-61
2021/01/02 10:53:25;;;;;;;85.37;33.17;;;;;;;;;;5093513;28;20024;-61
2021/01/02 10:55:51;;;;;;;81.47;33.43;;;;;;;;;;5093007;28;20012;-61
2021/01/02 10:58:16;;;;;;;82.70;33.33;;;;;;;;;;5075130;28;20479;-61
2021/01/02 11:00:41;;;;;;;76.17;30.57;;;;;;;;;;5075585;28;20666;-61
2021/01/02 11:03:07;;;;;;;82.63;31.50;;;;;;;;;;5074585;28;20505;-59
2021/01/02 11:05:32;;;;;;;90.05;34.67;;;;;;;;;;5093674;28;20111;-61
2021/01/02 11:07:58;;;;;;;86.40;33.33;;;;;;;;;;5093104;28;20098;-62
2021/01/02 11:10:23;;;;;;;84.23;31.87;;;;;;;;;;5092892;28;20138;-60
2021/01/02 11:12:48;;;;;;;81.90;33.50;;;;;;;;;;5092693;28;20024;-60
2021/01/02 11:15:14;;;;;;;79.27;31.93;;;;;;;;;;5093684;28;20036;-61
2021/01/02 11:17:40;;;;;;;84.37;35.83;;;;;;;;;;5093503;28;20081;-60
2021/01/02 11:20:06;;;;;;;86.50;34.75;;;;;;;;;;5074525;28;20176;-60
2021/01/02 11:22:31;;;;;;;89.18;33.25;;;;;;;;;;5093564;28;20032;-61
2021/01/02 11:24:57;;;;;;;69.37;27.87;;;;;;;;;;5074370;28;20452;-61
2021/01/02 11:27:22;;;;;;;82.53;32.50;;;;;;;;;;5093304;28;20076;-60
2021/01/02 11:29:49;;;;;;;82.07;33.50;;;;;;;;;;5092538;28;20062;-61
2021/01/02 11:32:14;;;;;;;81.03;32.23;;;;;;;;;;5075118;28;20115;-59
2021/01/02 11:34:39;;;;;;;84.97;33.43;;;;;;;;;;5093455;28;20340;-62
2021/01/02 11:37:06;;;;;;;77.77;32.07;;;;;;;;;;5092550;28;20407;-60
2021/01/02 11:39:32;;;;;;;90.60;31.98;;;;;;;;;;5093080;28;20482;-60
2021/01/02 11:41:58;;;;;;;91.68;36.15;;;;;;;;;;5092386;28;20094;-58
2021/01/02 11:44:25;;;;;;;93.28;33.38;;;;;;;;;;5093093;28;20028;-61
2021/01/02 11:46:51;;;;;;;91.53;34.53;;;;;;;;;;5092466;28;20079;-59
2021/01/02 11:49:18;;;;;;;93.07;34.85;;;;;;;;;;5092405;28;20468;-60
2021/01/02 11:51:43;;;;;;;;;;;;;;;;;;5074882;28;20083;-61
2021/01/02 11:54:08;;;;;;;81.67;31.00;;;;;;;;;;5091873;28;20037;-62
2021/01/02 11:56:34;;;;;;;84.83;32.10;;;;;;;;;;5092675;28;20478;-61
2021/01/02 11:59:00;;;;;;;78.97;33.95;;;;;;;;;;5074610;28;20448;-61
2021/01/02 12:01:34;;;;;;;78.55;31.25;;;;;;;;;;5092806;28;20099;-59
2021/01/02 12:03:59;;;;;;;83.85;30.80;;;;;;;;;;5091665;28;20328;-60
2021/01/02 12:06:28;;;;;;;83.17;34.20;;;;;;;;;;5073927;28;20031;-60
2021/01/02 12:08:54;;;;;;;76.32;32.13;;;;;;;;;;5091180;28;20070;-60
2021/01/02 12:11:46;;;;;;;66.03;27.00;;;;;;;;;;5073895;28;20079;-61
2021/01/02 12:14:12;;;;;;;81.28;32.03;;;;;;;;;;5085010;28;20052;-60
2021/01/02 12:16:39;;;;;;;85.38;34.25;;;;;;;;;;5092194;28;20353;-61
2021/01/02 12:19:06;;;;;;;82.72;32.45;;;;;;;;;;5073263;28;20546;-62
2021/01/02 12:21:31;;;;;;;84.30;34.67;;;;;;;;;;5091950;28;20020;-62
2021/01/02 12:23:56;;;;;;;73.90;30.80;;;;;;;;;;5072123;28;20120;-60
2021/01/02 12:26:22;;;;;;;82.83;31.97;;;;;;;;;;5091633;28;20441;-61
2021/01/02 12:28:48;;;;;;;86.28;32.90;;;;;;;;;;5091297;28;20051;-60
2021/01/02 12:31:21;;;;;;;79.93;32.95;;;;;;;;;;5091137;28;20111;-60
2021/01/02 12:33:46;;;;;;;62.95;26.88;;;;;;;;;;5089924;28;20020;-61
2021/01/02 12:36:12;;;;;;;74.77;30.80;;;;;;;;;;5072856;28;20077;-61
2021/01/02 12:38:38;;;;;;;75.82;29.35;;;;;;;;;;5081807;28;20035;-61
2021/01/02 12:41:04;;;;;;;68.55;29.40;;;;;;;;;;5072774;28;20027;-61
2021/01/02 12:43:29;;;;;;;76.30;30.73;;;;;;;;;;5073130;28;20020;-61
2021/01/02 12:45:58;;;;;;;80.80;31.73;;;;;;;;;;5090890;28;20043;-60
2021/01/02 12:48:23;;;;;;;73.18;30.45;;;;;;;;;;5091418;28;20035;-60
2021/01/02 12:50:51;;;;;;;69.60;30.45;;;;;;;;;;5073059;28;20036;-60
2021/01/02 12:53:17;;;;;;;69.50;28.52;;;;;;;;;;5090524;28;20139;-60
2021/01/02 12:55:42;;;;;;;69.20;28.80;;;;;;;;;;5091218;28;20446;-61
2021/01/02 12:58:07;;;;;;;73.77;29.10;;;;;;;;;;5069774;28;20016;-62
2021/01/02 13:00:33;;;;;;;86.83;32.67;;;;;;;;;;5091516;28;20153;-61
2021/01/02 13:02:59;;;;;;;80.22;33.28;;;;;;;;;;5080983;28;20020;-61
2021/01/02 13:05:24;;;;;;;83.47;36.33;;;;;;;;;;5091585;28;20048;-60
2021/01/02 13:07:49;;;;;;;79.37;33.10;;;;;;;;;;5091091;28;20110;-60
2021/01/02 13:10:16;;;;;;;87.37;33.87;;;;;;;;;;5090598;28;20038;-61
2021/01/02 13:12:42;;;;;;;85.97;32.10;;;;;;;;;;5091189;28;20505;-62
2021/01/02 13:15:07;;;;;;;76.10;32.90;;;;;;;;;;5090353;28;20031;-61
2021/01/02 13:17:33;;;;;;;86.50;36.40;;;;;;;;;;5091069;28;20356;-61
2021/01/02 13:19:58;;;;;;;77.83;33.13;;;;;;;;;;5090245;28;20505;-59
2021/01/02 13:22:23;;;;;;;85.23;33.57;;;;;;;;;;5072730;28;20514;-60
2021/01/02 13:24:49;;;;;;;81.50;31.97;;;;;;;;;;5091402;28;20107;-61
2021/01/02 13:27:17;;;;;;;85.87;33.30;;;;;;;;;;5072710;28;20119;-62
2021/01/02 13:29:49;;;;;;;86.00;34.03;;;;;;;;;;5056392;28;20035;-60
2021/01/02 13:32:15;;;;;;;83.05;36.33;;;;;;;;;;5090583;28;20028;-60
2021/01/02 13:34:40;;;;;;;84.13;34.67;;;;;;;;;;5091392;28;20458;-61
2021/01/02 13:37:07;;;;;;;78.77;32.33;;;;;;;;;;5072709;28;20036;-60
2021/01/02 13:39:32;;;;;;;69.40;31.20;;;;;;;;;;5091167;28;20471;-61
2021/01/02 13:41:58;;;;;;;85.28;35.70;;;;;;;;;;5090712;28;20024;-54
2021/01/02 13:44:24;;;;;;;79.97;33.20;;;;;;;;;;5073036;28;20371;-61
2021/01/02 13:46:50;;;;;;;72.97;32.38;;;;;;;;;;5090868;28;20046;-60
2021/01/02 13:49:15;;;;;;;92.20;35.25;;;;;;;;;;5072105;28;20046;-60
2021/01/02 13:51:45;;;;;;;89.70;33.47;;;;;;;;;;5087977;28;20359;-61
2021/01/02 13:54:10;;;;;;;84.28;33.63;;;;;;;;;;5089744;28;20456;-61
2021/01/02 13:56:35;;;;;;;96.60;35.63;;;;;;;;;;5072551;28;20036;-61
2021/01/02 13:59:01;;;;;;;86.37;32.07;;;;;;;;;;5087224;28;20028;-60
2021/01/02 14:01:27;;;;;;;89.87;33.83;;;;;;;;;;5090359;28;20060;-60
2021/01/02 14:03:52;;;;;;;85.28;32.92;;;;;;;;;;5090478;28;20020;-61
2021/01/02 14:06:18;;;;;;;78.47;32.97;;;;;;;;;;5089681;28;20028;-60
2021/01/02 14:08:43;;;;;;;81.70;34.05;;;;;;;;;;5090413;28;20426;-60
2021/01/02 14:11:18;;;;;;;79.57;32.75;;;;;;;;;;5089792;28;20093;-61
2021/01/02 14:13:43;;;;;;;88.22;33.10;;;;;;;;;;5087756;28;20032;-61
2021/01/02 14:16:09;;;;;;;83.50;31.03;;;;;;;;;;5071676;28;20463;-61
2021/01/02 14:18:34;;;;;;;68.97;28.57;;;;;;;;;;5090562;28;20024;-61
2021/01/02 14:20:59;;;;;;;79.47;34.10;;;;;;;;;;5090217;28;20173;-62